Terminal Aerodrome Forecast
Issued by NWS Quad Cities IA IL

Home | Current Version | Previous Version | Text Only | Print | Product List | Glossary On
Versions: 1 2 3 4 5 6 7 8 9 10 11 12 13 14 15 16 17 18 19 20 21 22 23 24 25 26 27
000
FTUS43 KDVN 151000 AAA
TAFMLI
TAF AMD
KMLI 151016Z 1510/1606 17010KT 4SM BR OVC008
     FM151300 14013KT 4SM -RA BR OVC007
     FM151800 15012KT 3SM -SHRA BR OVC012
     FM160000 13006KT 2SM -RA BR OVC007=

USA.gov is the U.S. government's official web portal to all federal, state and local government web resources and services.